createdAt,value
2017-08-02T00:09:26.697Z,0
2017-08-02T00:19:41.449Z,0
2017-08-02T00:29:56.270Z,0
2017-08-02T00:40:10.219Z,0
2017-08-02T00:50:24.039Z,0
2017-08-02T01:00:38.101Z,0
2017-08-02T01:10:52.686Z,0
2017-08-02T01:21:06.917Z,0
2017-08-02T01:31:21.533Z,0
2017-08-02T01:41:36.207Z,0
2017-08-02T01:51:51.546Z,0
2017-08-02T02:02:06.763Z,0
2017-08-02T02:12:20.834Z,0
2017-08-02T02:22:35.838Z,0
2017-08-02T02:32:50.312Z,0
2017-08-02T02:43:04.282Z,0
2017-08-02T02:53:19.866Z,0
2017-08-02T03:03:34.832Z,0
2017-08-02T03:13:49.979Z,0
2017-08-02T03:24:04.838Z,0
2017-08-02T03:34:19.638Z,0
2017-08-02T03:44:35.242Z,5
2017-08-02T03:54:49.330Z,10
2017-08-02T04:05:04.110Z,20
2017-08-02T04:15:19.816Z,40
2017-08-02T04:25:34.436Z,60
2017-08-02T04:35:50.036Z,70
2017-08-02T04:46:04.534Z,115
2017-08-02T04:56:20.176Z,120
2017-08-02T05:06:35.046Z,110
2017-08-02T05:16:50.949Z,175
2017-08-02T05:27:06.256Z,175
2017-08-02T05:37:20.251Z,245
2017-08-02T05:47:34.704Z,280
2017-08-02T05:57:49.392Z,245
2017-08-02T06:08:04.843Z,285
2017-08-02T06:18:20.360Z,235
2017-08-02T06:28:34.255Z,355
2017-08-02T06:38:48.398Z,505
2017-08-02T06:49:02.410Z,290
2017-08-02T06:59:16.701Z,530
2017-08-02T07:09:30.537Z,425
2017-08-02T07:19:45.236Z,590
2017-08-02T07:30:00.935Z,790
2017-08-02T07:40:15.856Z,750
2017-08-02T07:50:30.798Z,735
2017-08-02T08:00:46.214Z,740
2017-08-02T08:21:15.869Z,1010
2017-08-02T08:31:30.643Z,860
2017-08-02T08:41:44.847Z,945
2017-08-02T08:51:59.270Z,420
2017-08-02T09:02:13.301Z,580
2017-08-02T09:12:29.176Z,1210
2017-08-02T09:22:44.836Z,595
2017-08-02T09:32:59.866Z,1265
2017-08-02T09:43:13.924Z,585
2017-08-02T09:53:28.011Z,1905
2017-08-02T10:03:43.331Z,2115
2017-08-02T10:13:59.232Z,2240
2017-08-02T10:24:14.676Z,1570
2017-08-02T10:34:29.005Z,1405
2017-08-02T10:44:43.945Z,1060
2017-08-02T10:54:58.732Z,985
2017-08-02T11:05:14.510Z,1520
2017-08-02T11:15:28.948Z,1230
2017-08-02T11:25:44.757Z,1230
2017-08-02T11:35:59.982Z,1220
2017-08-02T11:46:15.666Z,760
2017-08-02T11:56:31.249Z,1200
2017-08-02T12:06:45.717Z,1210
2017-08-02T12:17:01.321Z,1235
2017-08-02T12:27:17.140Z,1295
2017-08-02T12:37:32.258Z,1120
2017-08-02T12:47:46.335Z,1255
2017-08-02T12:58:02.006Z,1315
2017-08-02T13:08:17.847Z,3710
2017-08-02T13:18:32.098Z,1040
2017-08-02T13:28:46.986Z,1370
2017-08-02T13:39:01.290Z,1460
2017-08-02T13:49:16.088Z,1895
2017-08-02T13:59:31.977Z,1460
2017-08-02T14:09:47.871Z,1130
2017-08-02T14:20:03.089Z,665
2017-08-02T14:30:17.898Z,885
2017-08-02T14:40:32.610Z,645
2017-08-02T14:50:46.595Z,525
2017-08-02T15:01:02.165Z,380
2017-08-02T15:11:16.888Z,475
2017-08-02T15:21:31.388Z,490
2017-08-02T15:31:47.189Z,275
2017-08-02T15:42:02.357Z,240
2017-08-02T15:52:17.639Z,175
2017-08-02T16:02:31.602Z,210
2017-08-02T16:12:46.835Z,335
2017-08-02T16:23:01.946Z,170
2017-08-02T16:33:16.150Z,110
2017-08-02T16:43:31.759Z,240
2017-08-02T16:53:46.454Z,180
2017-08-02T17:04:01.408Z,135
2017-08-02T17:14:16.832Z,145
2017-08-02T17:24:31.060Z,160
2017-08-02T17:34:45.993Z,120
2017-08-02T17:45:00.799Z,135
2017-08-02T17:55:15.621Z,95
2017-08-02T18:05:29.439Z,60
2017-08-02T18:15:44.036Z,60
2017-08-02T18:25:58.753Z,55
2017-08-02T18:36:14.488Z,15
2017-08-02T18:46:28.844Z,10
2017-08-02T18:56:44.132Z,5
2017-08-02T19:06:59.842Z,5
2017-08-02T19:17:15.212Z,0
2017-08-02T19:27:29.046Z,0
2017-08-02T19:37:43.815Z,0
2017-08-02T19:47:57.688Z,0
2017-08-02T19:58:12.754Z,0
2017-08-02T20:08:28.393Z,0
2017-08-02T20:18:43.023Z,0
2017-08-02T20:28:58.170Z,0
2017-08-02T20:39:13.214Z,0
2017-08-02T20:49:28.362Z,0
2017-08-02T20:59:43.945Z,0
2017-08-02T21:09:58.234Z,0
2017-08-02T21:20:12.707Z,0
2017-08-02T21:30:27.828Z,0
2017-08-02T21:40:41.879Z,0
2017-08-02T21:50:55.718Z,0
2017-08-02T22:01:11.465Z,0
2017-08-02T22:11:25.817Z,0
2017-08-02T22:21:41.203Z,0
2017-08-02T22:31:55.833Z,0
2017-08-02T22:42:10.704Z,0
2017-08-02T22:52:25.953Z,0
2017-08-02T23:02:40.417Z,0
2017-08-02T23:12:54.882Z,0
2017-08-02T23:23:10.131Z,0
2017-08-02T23:33:24.215Z,0
2017-08-02T23:43:39.863Z,0
2017-08-02T23:53:53.685Z,0
